createdAt,value
2023-02-16T00:00:43.823Z,99.90
2023-02-16T00:03:13.533Z,99.90
2023-02-16T00:10:35.701Z,99.90
2023-02-16T00:13:32.625Z,99.90
2023-02-16T00:18:26.116Z,99.90
2023-02-16T00:20:52.682Z,99.90
2023-02-16T00:28:17.396Z,99.90
2023-02-16T00:30:44.080Z,99.90
2023-02-16T00:33:15.011Z,99.90
2023-02-16T00:35:41.558Z,99.90
2023-02-16T00:45:31.716Z,99.90
2023-02-16T00:47:58.801Z,99.90
2023-02-16T00:50:28.127Z,99.90
2023-02-16T00:52:57.772Z,99.90
2023-02-16T00:55:26.869Z,99.90
2023-02-16T00:57:55.826Z,99.90
2023-02-16T01:00:26.244Z,99.90
2023-02-16T01:02:56.919Z,99.90
2023-02-16T01:05:24.307Z,99.90
2023-02-16T01:08:09.354Z,99.90
2023-02-16T01:13:23.178Z,99.90
2023-02-16T01:15:49.779Z,99.90
2023-02-16T01:18:19.116Z,99.90
2023-02-16T01:20:49.561Z,99.90
2023-02-16T01:23:16.139Z,99.90
2023-02-16T01:28:20.033Z,99.90
2023-02-16T01:35:41.488Z,99.90
2023-02-16T01:38:18.469Z,99.90
2023-02-16T01:40:52.511Z,99.90
2023-02-16T01:43:22.791Z,99.90
2023-02-16T01:45:55.742Z,99.90
2023-02-16T01:48:26.788Z,99.90
2023-02-16T01:51:03.947Z,99.90
2023-02-16T01:53:36.472Z,99.90
2023-02-16T01:56:09.850Z,99.90
2023-02-16T01:58:43.612Z,99.90
2023-02-16T02:01:45.588Z,99.90
2023-02-16T02:04:37.250Z,99.90
2023-02-16T02:07:04.547Z,99.90
2023-02-16T02:09:38.905Z,99.90
2023-02-16T02:12:13.329Z,99.90
2023-02-16T02:14:40.506Z,99.90
2023-02-16T02:17:10.825Z,99.90
2023-02-16T02:19:47.394Z,99.90
2023-02-16T02:23:01.628Z,99.90
2023-02-16T02:25:54.881Z,99.90
2023-02-16T02:28:30.734Z,99.90
2023-02-16T02:31:02.194Z,99.90
2023-02-16T02:33:47.419Z,99.90
2023-02-16T02:36:27.200Z,99.90
2023-02-16T02:39:04.193Z,99.90
2023-02-16T02:41:57.383Z,99.90
2023-02-16T02:44:27.097Z,99.90
2023-02-16T02:51:49.244Z,99.90
2023-02-16T02:54:37.054Z,99.90
2023-02-16T02:57:26.282Z,99.90
2023-02-16T03:00:15.930Z,99.90
2023-02-16T03:02:44.543Z,99.90
2023-02-16T03:05:14.350Z,99.90
2023-02-16T03:07:47.021Z,99.90
2023-02-16T03:10:32.807Z,99.90
2023-02-16T03:13:01.547Z,99.90
2023-02-16T03:15:31.039Z,99.90
2023-02-16T03:18:17.143Z,99.90
2023-02-16T03:21:03.916Z,99.90
2023-02-16T03:31:46.705Z,99.90
2023-02-16T03:34:14.083Z,99.90
2023-02-16T03:36:43.832Z,99.90
2023-02-16T03:39:11.237Z,99.90
2023-02-16T03:41:40.402Z,99.90
2023-02-16T03:49:01.549Z,99.90
2023-02-16T04:06:10.474Z,99.90
2023-02-16T04:21:13.269Z,99.90
2023-02-16T04:38:21.996Z,99.90
2023-02-16T04:55:30.601Z,99.90
2023-02-16T05:02:51.738Z,99.90
2023-02-16T05:07:45.253Z,99.90
2023-02-16T05:12:57.868Z,99.90
2023-02-16T05:27:39.888Z,99.90
2023-02-16T05:30:07.424Z,99.90
2023-02-16T05:44:49.101Z,99.90
2023-02-16T06:01:57.745Z,99.90
2023-02-16T06:14:14.821Z,99.90
2023-02-16T06:16:43.621Z,99.90
2023-02-16T06:19:11.432Z,99.90
2023-02-16T06:21:38.853Z,99.90
2023-02-16T06:24:06.740Z,99.90
2023-02-16T06:36:24.285Z,99.90
2023-02-16T06:43:58.268Z,99.90
2023-02-16T06:51:19.404Z,99.90
2023-02-16T06:53:46.823Z,99.90
2023-02-16T07:10:56.249Z,99.90
2023-02-16T07:13:23.895Z,99.90
2023-02-16T07:23:11.374Z,99.90
2023-02-16T07:28:05.495Z,99.90
2023-02-16T07:40:20.149Z,99.90
2023-02-16T07:45:14.416Z,99.90
2023-02-16T07:50:08.784Z,99.90
2023-02-16T07:59:57.057Z,99.90
2023-02-16T08:02:26.617Z,99.90
2023-02-16T08:12:15.603Z,99.90
2023-02-16T08:19:37.211Z,99.90
2023-02-16T08:22:17.482Z,99.90
2023-02-16T08:32:07.027Z,99.90
2023-02-16T08:37:01.558Z,99.90
2023-02-16T08:39:30.559Z,99.90
2023-02-16T08:46:54.670Z,99.90
2023-02-16T08:49:23.287Z,99.90
2023-02-16T08:51:51.613Z,99.90
2023-02-16T08:54:21.071Z,99.90
2023-02-16T08:56:48.915Z,99.90
2023-02-16T08:59:17.087Z,99.90
2023-02-16T09:04:12.284Z,99.90
2023-02-16T09:06:40.364Z,99.90
2023-02-16T09:09:08.265Z,99.90
2023-02-16T09:11:36.004Z,99.90
2023-02-16T09:21:31.478Z,99.90
2023-02-16T09:24:00.013Z,99.90
2023-02-16T09:26:28.524Z,99.90
2023-02-16T09:28:56.883Z,99.90
2023-02-16T09:31:28.075Z,99.90
2023-02-16T09:33:57.380Z,99.90
2023-02-16T09:41:27.732Z,99.90
2023-02-16T09:43:58.416Z,99.90
2023-02-16T09:46:26.862Z,99.90
2023-02-16T09:51:34.404Z,99.90
2023-02-16T09:54:13.516Z,99.90
2023-02-16T09:56:46.116Z,99.90
2023-02-16T09:59:33.870Z,99.90
2023-02-16T10:02:16.696Z,99.90
2023-02-16T10:04:51.280Z,99.90
2023-02-16T10:07:31.946Z,99.90
2023-02-16T10:10:01.194Z,99.90
2023-02-16T10:12:33.340Z,99.90
2023-02-16T10:15:06.840Z,99.90
2023-02-16T10:17:41.310Z,99.90
2023-02-16T10:20:12.679Z,99.90
2023-02-16T10:22:47.677Z,99.90
2023-02-16T10:25:19.995Z,99.90
2023-02-16T10:27:52.185Z,99.90
2023-02-16T10:30:21.609Z,99.90
2023-02-16T10:33:01.401Z,99.90
2023-02-16T10:35:40.169Z,99.90
2023-02-16T10:38:12.496Z,99.90
2023-02-16T10:40:48.764Z,99.90
2023-02-16T10:43:20.899Z,99.90
2023-02-16T10:45:52.964Z,99.90
2023-02-16T10:50:56.388Z,99.90
2023-02-16T10:53:34.910Z,99.90
2023-02-16T10:58:36.867Z,99.90
2023-02-16T11:01:12.960Z,99.90
2023-02-16T11:03:45.913Z,99.90
2023-02-16T11:06:14.429Z,99.90
2023-02-16T11:08:49.127Z,99.90
2023-02-16T11:11:17.141Z,99.90
2023-02-16T11:13:48.513Z,99.90
2023-02-16T11:16:22.592Z,99.90
2023-02-16T11:18:57.905Z,99.90
2023-02-16T11:21:46.587Z,99.90
2023-02-16T11:24:23.851Z,99.90
2023-02-16T11:27:00.810Z,99.90
2023-02-16T11:31:57.157Z,99.90
2023-02-16T11:34:31.433Z,99.90
2023-02-16T11:37:06.207Z,99.90
2023-02-16T11:39:37.052Z,99.90
2023-02-16T11:42:06.206Z,99.90
2023-02-16T11:44:35.544Z,99.90
2023-02-16T11:47:05.368Z,99.90
2023-02-16T11:49:34.088Z,99.90
2023-02-16T11:52:16.860Z,99.90
2023-02-16T11:54:48.731Z,99.90
2023-02-16T11:57:22.281Z,99.90
2023-02-16T11:59:49.358Z,99.90
2023-02-16T12:02:49.567Z,99.90
2023-02-16T12:05:26.587Z,99.90
2023-02-16T12:08:15.897Z,99.90
2023-02-16T12:10:49.844Z,99.90
2023-02-16T12:13:22.180Z,99.90
2023-02-16T12:15:56.682Z,99.90
2023-02-16T12:18:33.930Z,99.90
2023-02-16T12:21:10.844Z,99.90
2023-02-16T12:23:42.696Z,99.90
2023-02-16T12:26:30.786Z,99.90
2023-02-16T12:29:06.615Z,99.90
2023-02-16T12:31:46.697Z,99.90
2023-02-16T12:34:22.560Z,99.90
2023-02-16T12:36:56.583Z,99.90
2023-02-16T12:39:29.460Z,99.90
2023-02-16T12:42:15.572Z,99.90
2023-02-16T12:44:45.724Z,99.90
2023-02-16T12:47:18.887Z,99.90
2023-02-16T12:49:52.899Z,99.90
2023-02-16T12:52:30.454Z,99.90
2023-02-16T12:55:02.860Z,99.90
2023-02-16T12:57:34.459Z,99.90
2023-02-16T13:00:07.534Z,99.90
2023-02-16T13:02:39.950Z,99.90
2023-02-16T13:05:12.620Z,99.90
2023-02-16T13:07:42.263Z,99.90
2023-02-16T13:10:21.686Z,99.90
2023-02-16T13:12:51.535Z,99.90
2023-02-16T13:15:22.482Z,99.40
2023-02-16T13:17:52.724Z,99.90
2023-02-16T13:20:22.379Z,96.80
2023-02-16T13:23:19.431Z,94.00
2023-02-16T13:26:10.007Z,90.20
2023-02-16T13:28:55.872Z,84.40
2023-02-16T13:31:35.130Z,82.80
2023-02-16T13:34:41.688Z,84.20
2023-02-16T13:37:23.879Z,84.60
2023-02-16T13:40:10.469Z,93.20
2023-02-16T13:43:18.640Z,82.20
2023-02-16T13:45:48.077Z,78.60
2023-02-16T13:48:21.771Z,75.70
2023-02-16T13:50:56.020Z,78.30
2023-02-16T13:53:23.952Z,77.30
2023-02-16T13:56:16.968Z,79.10
2023-02-16T13:58:43.721Z,78.90
2023-02-16T14:01:38.193Z,93.70
2023-02-16T14:04:10.934Z,82.80
2023-02-16T14:06:39.200Z,81.30
2023-02-16T14:09:35.442Z,84.80
2023-02-16T14:12:13.540Z,99.90
2023-02-16T14:14:46.026Z,95.20
2023-02-16T14:17:16.896Z,99.90
2023-02-16T14:19:51.102Z,99.90
2023-02-16T14:22:20.635Z,99.90
2023-02-16T14:24:52.370Z,99.90
2023-02-16T14:27:43.068Z,99.90
2023-02-16T14:30:20.214Z,99.90
2023-02-16T14:32:54.265Z,99.90
2023-02-16T14:35:24.654Z,99.90
2023-02-16T14:37:55.070Z,99.90
2023-02-16T14:40:38.881Z,99.90
2023-02-16T14:43:17.346Z,99.90
2023-02-16T14:46:05.156Z,99.90
2023-02-16T14:49:04.578Z,99.90
2023-02-16T14:51:52.135Z,99.90
2023-02-16T14:54:47.638Z,99.90
2023-02-16T14:57:15.937Z,99.90
2023-02-16T14:59:50.626Z,99.90
2023-02-16T15:02:30.253Z,99.90
2023-02-16T15:04:57.820Z,99.90
2023-02-16T15:07:27.638Z,99.90
2023-02-16T15:10:29.603Z,99.90
2023-02-16T15:12:56.828Z,99.90
2023-02-16T15:15:29.438Z,99.90
2023-02-16T15:17:56.166Z,99.90
2023-02-16T15:20:27.514Z,99.90
2023-02-16T15:22:56.271Z,99.90
2023-02-16T15:25:26.998Z,99.90
2023-02-16T15:27:58.417Z,99.90
2023-02-16T15:30:27.102Z,99.90
2023-02-16T15:32:56.766Z,99.90
2023-02-16T15:35:27.592Z,99.90
2023-02-16T15:38:07.283Z,99.90
2023-02-16T15:40:35.087Z,99.90
2023-02-16T15:43:09.091Z,99.90
2023-02-16T15:45:37.499Z,99.90
2023-02-16T15:48:15.249Z,99.90
2023-02-16T15:53:12.388Z,99.90
2023-02-16T15:55:43.825Z,99.90
2023-02-16T15:58:12.041Z,99.90
2023-02-16T16:00:42.948Z,99.90
2023-02-16T16:03:14.572Z,99.90
2023-02-16T16:08:16.546Z,99.90
2023-02-16T16:10:45.766Z,99.90
2023-02-16T16:13:17.352Z,99.90
2023-02-16T16:15:48.096Z,99.90
2023-02-16T16:18:51.270Z,99.90
2023-02-16T16:21:22.281Z,99.90
2023-02-16T16:23:57.626Z,99.90
2023-02-16T16:26:26.530Z,99.90
2023-02-16T16:28:53.757Z,99.90
2023-02-16T16:31:38.124Z,99.90
2023-02-16T16:34:07.434Z,99.90
2023-02-16T16:36:36.957Z,99.90
2023-02-16T16:39:20.495Z,99.90
2023-02-16T16:42:04.628Z,99.90
2023-02-16T16:44:34.329Z,99.90
2023-02-16T16:47:13.533Z,99.90
2023-02-16T16:49:48.261Z,99.90
2023-02-16T16:52:29.603Z,99.90
2023-02-16T16:54:56.676Z,99.90
2023-02-16T16:57:23.773Z,99.90
2023-02-16T16:59:50.408Z,99.90
2023-02-16T17:02:17.700Z,99.90
2023-02-16T17:04:44.388Z,99.90
2023-02-16T17:07:11.016Z,99.90
2023-02-16T17:09:45.484Z,99.90
2023-02-16T17:12:12.215Z,99.90
2023-02-16T17:14:39.421Z,99.90
2023-02-16T17:17:08.204Z,99.90
2023-02-16T17:19:35.532Z,99.90
2023-02-16T17:22:06.112Z,99.90
2023-02-16T17:24:32.728Z,99.90
2023-02-16T17:26:59.378Z,99.90
2023-02-16T17:29:26.102Z,99.90
2023-02-16T17:31:52.929Z,99.90
2023-02-16T17:34:19.652Z,99.90
2023-02-16T17:36:47.008Z,99.90
2023-02-16T17:39:14.492Z,99.90
2023-02-16T17:41:41.176Z,99.90
2023-02-16T17:44:07.796Z,99.90
2023-02-16T17:46:34.451Z,99.90
2023-02-16T17:49:01.227Z,99.90
2023-02-16T17:51:29.695Z,99.90
2023-02-16T17:53:57.161Z,99.90
2023-02-16T17:56:24.790Z,99.90
2023-02-16T17:58:51.686Z,99.90
2023-02-16T18:01:20.147Z,99.90
2023-02-16T18:03:46.841Z,99.90
2023-02-16T18:06:14.260Z,99.90
2023-02-16T18:08:41.376Z,99.90
2023-02-16T18:11:08.751Z,99.90
2023-02-16T18:13:35.412Z,99.90
2023-02-16T18:16:03.161Z,99.90
2023-02-16T18:18:32.139Z,99.90
2023-02-16T18:20:58.927Z,99.90
2023-02-16T18:23:25.604Z,99.90
2023-02-16T18:28:24.883Z,99.90
2023-02-16T18:33:20.343Z,99.90
2023-02-16T18:35:47.072Z,99.90
2023-02-16T18:38:13.747Z,99.90
2023-02-16T18:40:41.643Z,99.90
2023-02-16T18:43:10.108Z,99.90
2023-02-16T18:45:38.249Z,99.90
2023-02-16T18:50:32.405Z,99.90
2023-02-16T18:52:59.160Z,99.90
2023-02-16T18:55:27.217Z,99.90
2023-02-16T18:57:54.374Z,99.90
2023-02-16T19:02:49.909Z,99.90
2023-02-16T19:05:20.141Z,99.90
2023-02-16T19:07:47.089Z,99.90
2023-02-16T19:10:13.875Z,99.90
2023-02-16T19:12:40.882Z,99.90
2023-02-16T19:15:08.650Z,99.90
2023-02-16T19:17:35.597Z,99.90
2023-02-16T19:20:09.414Z,99.90
2023-02-16T19:22:36.581Z,99.90
2023-02-16T19:25:03.877Z,99.90
2023-02-16T19:27:30.536Z,99.90
2023-02-16T19:29:59.137Z,99.90
2023-02-16T19:32:25.932Z,99.90
2023-02-16T19:37:20.450Z,99.90
2023-02-16T19:39:47.768Z,99.90
2023-02-16T19:42:23.408Z,99.90
2023-02-16T19:44:50.117Z,99.90
2023-02-16T19:49:45.514Z,99.90
2023-02-16T19:52:13.041Z,99.90
2023-02-16T19:54:40.663Z,99.90
2023-02-16T19:57:09.016Z,99.90
2023-02-16T19:59:37.565Z,99.90
2023-02-16T20:02:04.344Z,99.90
2023-02-16T20:04:31.044Z,99.90
2023-02-16T20:06:57.763Z,99.90
2023-02-16T20:09:25.014Z,99.90
2023-02-16T20:11:53.216Z,99.90
2023-02-16T20:14:21.412Z,99.90
2023-02-16T20:16:50.141Z,99.90
2023-02-16T20:19:16.993Z,99.90
2023-02-16T20:21:45.897Z,99.90
2023-02-16T20:24:14.188Z,99.90
2023-02-16T20:26:43.399Z,99.90
2023-02-16T20:29:15.929Z,99.90
2023-02-16T20:31:47.482Z,99.90
2023-02-16T20:36:42.933Z,99.90
2023-02-16T20:39:09.777Z,99.90
2023-02-16T20:44:05.876Z,99.90
2023-02-16T20:46:33.828Z,99.90
2023-02-16T20:51:28.293Z,99.90
2023-02-16T20:53:55.016Z,99.90
2023-02-16T20:56:23.727Z,99.90
2023-02-16T20:58:54.974Z,99.90
2023-02-16T21:01:25.166Z,99.90
2023-02-16T21:03:57.814Z,99.90
2023-02-16T21:06:25.404Z,99.90
2023-02-16T21:11:22.196Z,99.90
2023-02-16T21:13:49.400Z,99.90
2023-02-16T21:16:16.225Z,99.90
2023-02-16T21:18:44.478Z,99.90
2023-02-16T21:21:14.806Z,99.90
2023-02-16T21:23:42.894Z,99.90
2023-02-16T21:26:09.853Z,99.90
2023-02-16T21:28:36.541Z,99.90
2023-02-16T21:31:05.052Z,99.90
2023-02-16T21:33:31.816Z,99.90
2023-02-16T21:36:05.348Z,99.90
2023-02-16T21:38:34.563Z,99.90
2023-02-16T21:41:24.017Z,99.90
2023-02-16T21:43:53.594Z,99.90
2023-02-16T21:46:20.435Z,99.90
2023-02-16T21:51:15.637Z,99.90
2023-02-16T21:53:44.110Z,99.90
2023-02-16T21:56:22.734Z,99.90
2023-02-16T22:01:21.308Z,99.90
2023-02-16T22:03:48.777Z,99.90
2023-02-16T22:06:16.250Z,99.90
2023-02-16T22:08:43.553Z,99.90
2023-02-16T22:11:12.090Z,99.90
2023-02-16T22:13:44.369Z,99.90
2023-02-16T22:16:13.324Z,99.90
2023-02-16T22:18:40.756Z,99.90
2023-02-16T22:21:09.640Z,99.90
2023-02-16T22:23:37.682Z,99.90
2023-02-16T22:26:08.798Z,99.90
2023-02-16T22:28:37.394Z,99.90
2023-02-16T22:31:09.462Z,99.90
2023-02-16T22:36:12.103Z,99.90
2023-02-16T22:38:40.210Z,99.90
2023-02-16T22:41:09.570Z,99.90
2023-02-16T22:43:40.092Z,99.90
2023-02-16T22:46:08.882Z,99.90
2023-02-16T22:48:37.013Z,99.90
2023-02-16T22:51:06.506Z,99.90
2023-02-16T22:53:35.018Z,99.90
2023-02-16T22:56:08.896Z,99.90
2023-02-16T22:58:36.866Z,99.90
2023-02-16T23:01:04.074Z,99.90
2023-02-16T23:03:31.188Z,99.90
2023-02-16T23:06:00.308Z,99.90
2023-02-16T23:08:27.781Z,99.90
2023-02-16T23:13:32.973Z,99.90
2023-02-16T23:16:04.422Z,99.90
2023-02-16T23:18:31.975Z,99.90
2023-02-16T23:21:04.996Z,99.90
2023-02-16T23:23:31.908Z,99.90
2023-02-16T23:25:58.633Z,99.90
2023-02-16T23:30:56.568Z,99.90
2023-02-16T23:35:50.718Z,99.90
2023-02-16T23:40:44.623Z,99.90
2023-02-16T23:45:38.793Z,99.90
2023-02-16T23:48:06.494Z,99.90
2023-02-16T23:53:00.129Z,99.90
2023-02-16T23:55:26.817Z,99.90
2023-02-16T23:57:53.560Z,99.90
